North Chicago, IL (60064)

7:44 AM CST on December 03, 2016 (GMT -0600)
NE North Chicago | | Change Station

Elev 656 ft 42.34 °N, 87.84 °W | Updated 54 seconds ago

Overcast
Overcast
31.9 °F
Feels Like 32 °F
N
1.0
Wind Variable Wind from West

Today
High -- | Low -- °F
--% Chance of Precip.
Yesterday
High -- | Low -- °F
Precip. -- in
Pressure 30.38 in
Visibility 10.0 miles
Clouds Overcast 2300 ft
Windchill 32 °F
Dew Point 24 °F
Humidity 74%
Rainfall 0.00 in
Snow Depth Not available.
7:03 AM 4:19 PM
Waxing Crescent, 15% visible
METAR KUGN 031255Z VRB03KT 10SM OVC023 00/M05 A3034 RMK AO2 SLP285 T00001050 $
Pressure 30.38 in
Visibility 10.0 miles
Clouds Overcast 2300 ft
Windchill 32 °F
Dew Point 24 °F
Humidity 74%
Rainfall 0.00 in
Snow Depth Not available.
7:03 AM 4:19 PM
Waxing Crescent, 15% visible
METAR KUGN 031255Z VRB03KT 10SM OVC023 00/M05 A3034 RMK AO2 SLP285 T00001050 $

10-Day Weather Forecast

Almanac

Astronomy

Dec. 03, 2016 Rise Set
Actual Time
Civil Twilight
Nautical Twilight
Astronomical Twilight
Moon
Length of Visible Light
Length of Day
Tomorrow will be .
, % of the Moon is Illuminated

Today's Extremes

State Highs State Lows

Community

WunderPhotos

Upload Photos

1,955,446 photos uploaded!

WunderBlog® & News

Nearby

Air Quality

  Air Quality AQ Index Pollutant
Not available.

Snow Depth

Station Depth Elevation

Earthquake Activity

City Distance Mag. Time & Date
Minimum magnitude displayed is 2.5.

Coastal Water Temperatures

Place Temperature

Stations

Nearby Weather Stations

Station Location Temp. Windchill Dew Point Humidity Wind Precip. Elev Updated Type
                   

Watches & Warnings

There are currently no watches in effect.